Time;durP1;ratioP1;P1;durP2;ratioP2;P2;SDS_P1;SDS_P2;PMS_P1;PMS_P2;Temp;Humidity;BMP_temperature;BMP_pressure;BME280_temperature;BME280_humidity;BME280_pressure;Samples;Min_cycle;Max_cycle;Signal;HPM_P1;HPM_P2
2021/03/01 00:00:45;;;;;;;28.95;12.23;;;-1.30;71.00;;;;;;5087908;28;20105;-69
2021/03/01 00:03:11;;;;;;;24.77;11.93;;;-1.30;71.10;;;;;;5070324;28;20028;-73
2021/03/01 00:05:37;;;;;;;26.77;11.30;;;-1.30;71.30;;;;;;5087516;28;20380;-73
2021/03/01 00:08:03;;;;;;;26.80;11.50;;;-1.30;71.40;;;;;;5091883;28;20043;-72
2021/03/01 00:10:30;;;;;;;25.17;12.15;;;-1.30;71.20;;;;;;5093513;28;20360;-69
2021/03/01 00:12:55;;;;;;;24.92;10.93;;;-1.30;71.50;;;;;;5094154;28;20028;-70
2021/03/01 00:15:23;;;;;;;24.13;11.40;;;-1.30;71.70;;;;;;5092213;28;20044;-72
2021/03/01 00:17:50;;;;;;;25.13;13.30;;;-1.30;71.80;;;;;;5092615;28;20098;-72
2021/03/01 00:20:16;;;;;;;27.25;14.13;;;-1.20;71.80;;;;;;5091749;28;20056;-72
2021/03/01 00:22:45;;;;;;;50.72;22.65;;;-1.20;71.60;;;;;;5092456;28;20122;-72
2021/03/01 00:25:13;;;;;;;23.95;13.02;;;-1.20;72.10;;;;;;5075310;28;20094;-69
2021/03/01 00:27:39;;;;;;;32.47;12.35;;;-1.30;72.30;;;;;;5092314;28;20035;-69
2021/03/01 00:30:07;;;;;;;22.58;10.25;;;-1.30;72.60;;;;;;5092150;28;20071;-69
2021/03/01 00:32:34;;;;;;;29.90;11.80;;;-1.30;72.60;;;;;;5092348;28;20085;-69
2021/03/01 00:35:00;;;;;;;21.23;10.77;;;-1.40;72.50;;;;;;5075316;28;20040;-75
2021/03/01 00:37:27;;;;;;;24.73;9.80;;;-1.40;72.60;;;;;;5092201;28;20027;-71
2021/03/01 00:39:52;;;;;;;22.92;9.73;;;-1.40;72.80;;;;;;5075343;28;20099;-75
2021/03/01 00:42:19;;;;;;;19.08;9.13;;;-1.50;72.80;;;;;;5074985;28;20058;-71
2021/03/01 00:44:45;;;;;;;19.48;9.60;;;-1.50;72.80;;;;;;5092223;28;20443;-71
2021/03/01 00:47:11;;;;;;;25.48;11.02;;;-1.50;72.80;;;;;;5091752;28;20031;-70
2021/03/01 00:49:37;;;;;;;29.95;10.93;;;-1.60;72.70;;;;;;5092132;28;20044;-70
2021/03/01 00:52:03;;;;;;;25.98;11.73;;;-1.60;72.90;;;;;;5091687;28;20024;-74
2021/03/01 00:54:29;;;;;;;27.80;11.65;;;-1.60;72.80;;;;;;5093085;28;20544;-71
2021/03/01 00:56:54;;;;;;;23.08;10.77;;;-1.60;72.80;;;;;;5091615;28;20063;-70
2021/03/01 00:59:20;;;;;;;26.90;11.60;;;-1.60;72.90;;;;;;5093074;28;20154;-74
2021/03/01 01:01:46;;;;;;;24.40;11.02;;;-1.70;73.20;;;;;;5091460;28;20149;-70
2021/03/01 01:04:12;;;;;;;23.48;11.02;;;-1.70;73.50;;;;;;5092046;28;20040;-74
2021/03/01 01:06:38;;;;;;;24.85;10.00;;;-1.70;73.50;;;;;;5093092;28;20040;-70
2021/03/01 01:09:05;;;;;;;15.57;8.27;;;-1.70;73.90;;;;;;5093395;28;20047;-73
2021/03/01 01:11:31;;;;;;;17.95;9.52;;;-1.80;73.50;;;;;;5091132;28;20043;-69
2021/03/01 01:13:57;;;;;;;19.50;8.55;;;-1.80;74.00;;;;;;5091837;28;20036;-70
2021/03/01 01:16:23;;;;;;;16.48;7.15;;;-1.90;74.50;;;;;;5092951;28;20426;-70
2021/03/01 01:18:49;;;;;;;21.95;9.85;;;-1.90;74.20;;;;;;5074773;28;20499;-69
2021/03/01 01:21:15;;;;;;;;;;;-1.90;74.60;;;;;;5091472;28;20083;-73
2021/03/01 01:23:41;;;;;;;18.60;7.00;;;-1.90;74.40;;;;;;5092516;28;19951;-69
2021/03/01 01:26:07;;;;;;;13.45;7.18;;;-2.00;74.00;;;;;;5092598;28;20035;-69
2021/03/01 01:28:33;;;;;;;17.27;7.85;;;-2.00;74.20;;;;;;5091486;28;20210;-73
2021/03/01 01:30:59;;;;;;;20.48;8.57;;;-2.10;74.30;;;;;;5073928;28;20451;-73
2021/03/01 01:33:25;;;;;;;19.40;8.23;;;-2.10;74.60;;;;;;5091401;28;20036;-73
2021/03/01 01:35:51;;;;;;;19.30;8.88;;;-2.20;74.60;;;;;;5090558;28;20044;-74
2021/03/01 01:38:17;;;;;;;21.13;10.77;;;-2.20;74.80;;;;;;5091182;28;20032;-74
2021/03/01 01:40:43;;;;;;;29.98;11.48;;;-2.20;74.60;;;;;;5090472;28;20565;-73
2021/03/01 01:43:09;;;;;;;22.73;9.55;;;-2.20;74.10;;;;;;5091153;28;20032;-70
2021/03/01 01:45:35;;;;;;;19.75;8.55;;;-2.20;74.70;;;;;;5090336;28;20058;-71
2021/03/01 01:48:01;;;;;;;16.63;8.23;;;-2.20;75.00;;;;;;5092250;28;20028;-74
2021/03/01 01:50:29;;;;;;;18.52;7.15;;;-2.20;75.20;;;;;;5090328;28;20036;-70
2021/03/01 01:52:56;;;;;;;19.25;9.25;;;-2.30;75.00;;;;;;5092310;28;20039;-70
2021/03/01 01:55:25;;;;;;;18.15;7.95;;;-2.30;75.60;;;;;;5090058;28;20085;-70
2021/03/01 01:57:51;;;;;;;18.75;8.50;;;-2.30;75.20;;;;;;5090636;28;20114;-74
2021/03/01 02:02:59;;;;;;;20.75;9.15;;;-2.40;75.00;;;;;;5090976;28;20107;-73
2021/03/01 02:05:26;;;;;;;20.92;9.45;;;-2.30;76.30;;;;;;5090122;28;20062;-72
2021/03/01 02:08:16;;;;;;;20.30;8.88;;;-2.40;75.90;;;;;;5090404;28;20036;-74
2021/03/01 02:11:09;;;;;;;15.90;7.95;;;-2.40;76.20;;;;;;5073033;28;20089;-74
2021/03/01 02:13:50;;;;;;;14.50;7.13;;;-2.30;76.10;;;;;;5090526;28;20032;-70
2021/03/01 02:16:21;;;;;;;16.23;7.10;;;-2.40;75.70;;;;;;5090043;28;20089;-74
2021/03/01 02:18:47;;;;;;;18.52;9.02;;;-2.40;75.90;;;;;;5090356;28;20432;-70
2021/03/01 02:21:14;;;;;;;21.58;9.38;;;-2.40;75.80;;;;;;5089490;28;20052;-74
2021/03/01 02:23:42;;;;;;;22.60;9.10;;;-2.40;75.90;;;;;;5091514;28;20040;-70
2021/03/01 02:26:25;;;;;;;23.92;9.85;;;-2.40;75.70;;;;;;5089487;28;20047;-70
2021/03/01 02:28:58;;;;;;;23.60;8.90;;;-2.40;75.70;;;;;;5090380;28;20067;-70
2021/03/01 02:31:27;;;;;;;20.02;8.95;;;-2.50;75.70;;;;;;5089295;28;20078;-70
2021/03/01 02:33:57;;;;;;;20.20;9.00;;;-2.50;75.70;;;;;;5073072;28;20060;-72
2021/03/01 02:36:54;;;;;;;25.02;10.75;;;-2.50;75.90;;;;;;5089739;28;20657;-73
2021/03/01 02:39:23;;;;;;;24.45;10.68;;;-2.50;76.30;;;;;;5090120;28;20028;-75
2021/03/01 02:41:52;;;;;;;31.70;11.73;;;-2.60;75.80;;;;;;5089414;28;20036;-71
2021/03/01 02:44:19;;;;;;;27.20;10.13;;;-2.60;76.00;;;;;;5089950;28;20086;-69
2021/03/01 02:46:47;;;;;;;20.13;7.60;;;-2.60;76.00;;;;;;5089450;28;20036;-72
2021/03/01 02:49:14;;;;;;;21.02;7.53;;;-2.60;76.20;;;;;;5072886;28;20441;-69
2021/03/01 02:51:44;;;;;;;21.58;9.40;;;-2.60;76.20;;;;;;5089270;28;20104;-69
2021/03/01 02:54:10;;;;;;;23.75;9.75;;;-2.60;76.30;;;;;;5089897;28;20035;-72
2021/03/01 02:56:39;;;;;;;19.42;8.38;;;-2.70;75.90;;;;;;5089058;28;20039;-69
2021/03/01 02:59:07;;;;;;;15.07;7.80;;;-2.60;76.50;;;;;;5089836;28;20032;-72
2021/03/01 03:01:36;;;;;;;17.70;6.15;;;-2.60;76.60;;;;;;5088872;28;20122;-69
2021/03/01 03:04:04;;;;;;;16.08;6.63;;;-2.60;76.60;;;;;;5089711;28;20028;-69
2021/03/01 03:06:33;;;;;;;14.60;6.35;;;-2.70;76.60;;;;;;5089279;28;20132;-69
2021/03/01 03:09:00;;;;;;;16.40;6.40;;;-2.60;76.60;;;;;;5089523;28;20028;-69
2021/03/01 03:11:28;;;;;;;12.15;5.53;;;-2.70;76.60;;;;;;5088940;28;20093;-69
2021/03/01 03:13:56;;;;;;;13.48;5.72;;;-2.70;76.50;;;;;;5089425;28;20141;-69
2021/03/01 03:16:25;;;;;;;22.65;9.77;;;-2.70;76.10;;;;;;5089193;28;20070;-69
2021/03/01 03:18:54;;;;;;;14.70;5.20;;;-2.70;76.70;;;;;;5089606;28;20167;-69
2021/03/01 03:21:21;;;;;;;13.27;5.57;;;-2.80;77.10;;;;;;5088441;28;20131;-68
2021/03/01 03:23:48;;;;;;;17.17;6.68;;;-2.90;76.80;;;;;;5089334;28;20039;-73
2021/03/01 03:26:14;;;;;;;13.82;5.53;;;-3.00;76.70;;;;;;5089036;28;20032;-69
2021/03/01 03:28:43;;;;;;;15.05;6.03;;;-3.00;76.90;;;;;;5089394;28;20043;-73
2021/03/01 03:31:10;;;;;;;16.08;6.45;;;-3.10;76.70;;;;;;5090530;28;20075;-73
2021/03/01 03:33:39;;;;;;;19.80;7.03;;;-3.20;76.70;;;;;;5089376;28;20114;-69
2021/03/01 03:36:06;;;;;;;13.00;5.85;;;-3.20;77.00;;;;;;5088744;28;20127;-69
2021/03/01 03:38:51;;;;;;;16.05;5.95;;;-3.30;77.10;;;;;;5090699;28;20028;-69
2021/03/01 03:41:19;;;;;;;18.00;6.15;;;-3.30;77.20;;;;;;5072194;28;20051;-73
2021/03/01 03:43:46;;;;;;;15.52;6.43;;;-3.30;77.00;;;;;;5093726;28;20390;-69
2021/03/01 03:46:14;;;;;;;13.93;5.95;;;-3.30;76.80;;;;;;5075943;28;20039;-69
2021/03/01 03:48:43;;;;;;;13.73;5.68;;;-3.30;76.70;;;;;;5093331;28;20024;-69
2021/03/01 03:51:12;;;;;;;30.05;6.78;;;-3.30;76.70;;;;;;5092541;28;20077;-69
2021/03/01 03:53:47;;;;;;;13.00;7.05;;;-3.30;76.80;;;;;;5093320;28;20046;-73
2021/03/01 03:56:15;;;;;;;19.80;7.70;;;-3.30;76.70;;;;;;5092856;28;20119;-73
2021/03/01 03:58:59;;;;;;;21.42;9.27;;;-3.30;76.70;;;;;;5076150;28;20123;-68
2021/03/01 04:01:26;;;;;;;16.42;7.28;;;-3.30;76.80;;;;;;5092973;28;20082;-73
2021/03/01 04:03:57;;;;;;;26.35;8.35;;;-3.30;76.80;;;;;;5093413;28;20032;-68
2021/03/01 04:06:24;;;;;;;15.50;7.00;;;-3.30;77.50;;;;;;5094376;28;20039;-73
2021/03/01 04:08:52;;;;;;;16.25;7.40;;;-3.30;77.60;;;;;;5075900;28;20055;-74
2021/03/01 04:11:22;;;;;;;19.17;8.77;;;-3.30;77.60;;;;;;5092668;28;20048;-69
2021/03/01 04:13:51;;;;;;;22.13;7.75;;;-3.30;77.60;;;;;;5075687;28;20048;-73
2021/03/01 04:16:19;;;;;;;15.13;5.93;;;-3.30;77.70;;;;;;5075519;28;20040;-69
2021/03/01 04:18:47;;;;;;;14.80;6.32;;;-3.40;78.00;;;;;;5092748;28;20028;-72
2021/03/01 04:21:14;;;;;;;14.43;6.40;;;-3.50;78.00;;;;;;5091683;28;20063;-69
2021/03/01 04:23:45;;;;;;;14.95;6.50;;;-3.50;78.50;;;;;;5075632;28;20024;-72
2021/03/01 04:26:12;;;;;;;12.43;5.32;;;-3.50;78.50;;;;;;5075001;28;20426;-74
2021/03/01 04:28:40;;;;;;;14.18;5.68;;;-3.50;78.60;;;;;;5093668;28;20085;-73
2021/03/01 04:31:09;;;;;;;16.27;5.68;;;-3.50;78.50;;;;;;5092209;28;20085;-73
2021/03/01 04:33:36;;;;;;;14.18;6.32;;;-3.50;78.40;;;;;;5092514;28;20077;-69
2021/03/01 04:36:05;;;;;;;13.95;6.82;;;-3.50;78.10;;;;;;5091952;28;20118;-73
2021/03/01 04:38:32;;;;;;;19.05;7.68;;;-3.50;77.90;;;;;;5075465;28;20378;-70
2021/03/01 04:40:59;;;;;;;23.15;8.65;;;-3.50;77.80;;;;;;5091914;28;20076;-69
2021/03/01 04:43:28;;;;;;;18.52;7.75;;;-3.50;77.20;;;;;;5092384;28;20104;-70
2021/03/01 04:45:55;;;;;;;17.50;7.72;;;-3.50;77.60;;;;;;5091639;28;20052;-72
2021/03/01 04:48:23;;;;;;;16.67;5.72;;;-3.50;77.70;;;;;;5092299;28;20372;-74
2021/03/01 04:50:51;;;;;;;15.90;5.97;;;-3.50;77.80;;;;;;5091486;28;20123;-73
2021/03/01 04:53:18;;;;;;;17.38;6.25;;;-3.50;77.90;;;;;;5091597;28;20114;-73
2021/03/01 04:55:46;;;;;;;15.63;6.55;;;-3.50;77.60;;;;;;5091752;28;20040;-73
2021/03/01 04:58:15;;;;;;;22.65;8.40;;;-3.50;78.10;;;;;;5093216;28;20502;-73
2021/03/01 05:00:42;;;;;;;18.75;7.53;;;-3.50;78.10;;;;;;5092673;28;20456;-69
2021/03/01 05:03:09;;;;;;;16.15;6.72;;;-3.50;78.20;;;;;;5091829;28;20024;-70
2021/03/01 05:05:35;;;;;;;;;;;-3.50;78.70;;;;;;5092001;28;20086;-68
2021/03/01 05:08:10;;;;;;;21.35;8.52;;;-3.60;78.50;;;;;;5092891;28;19941;-70
